Red Level, Alabama
Current Conditions -  °F | °C
As of 3:56 AM on Friday 21 Nov 2014 (Local Time) from K79J Reporting Station
Haze Haze  
Wind Chill: 40°   Ceiling: Unl
Heat Index: 40°   Visibility: 6mi
Dew Point: 35°   Wind: 0mph
Humidity: 83%   Direction: NA
Pressure: 30.29"   Gusts: NA
Location:  31.41°N, 86.61°W
Report Text: K79J 210956Z AUTO 00000KT 6SM HZ CLR 04/02 A3029 RMK AO2 SLP256 T00440017
Loading
Personal Weather Stations






























Interactive Weather Map New forecast layout! Learn more

10-Day Weather Forecast

Advertisements
Track Severe Weather on mobile